LQSA/SJJ METAR and TAF weather

Enter ICAO airport designator
Station Type Date Time Source
LQSA METAR 2020/09/22 03:00 UTC NOAA

LQSA 220300Z VRB01KT CAVOK 12/12 Q1018


Station Type Date Time Source
LQSA Decoded METAR 2020/09/22 03:00 UTC NOAA

Sarajevo, Bosnia and Herzegovina (LQSA) 43-49N 018-20E 510M
Sep 21, 2020 - 11:00 PM EDT / 2020.09.22 0300 UTC
Wind: Variable at 1 MPH (1 KT):0
Visibility: greater than 7 mile(s):0
Temperature: 53 F (12 C)
Dew Point: 53 F (12 C)
Relative Humidity: 100%
Pressure (altimeter): 30.06 in. Hg (1018 hPa)
ob: LQSA 220300Z VRB01KT CAVOK 12/12 Q1018
cycle: 3

Station Type Date Time Source
LQSA TAF 2020/09/21 18:07 UTC NOAA

TAF LQSA 211700Z 2118/2218 13005KT 9999 SCT065 TX25/2213Z TN13/2204Z PROB30 2203/2207 3000 BR BKN005 PROB30
TEMPO 2211/2217 VRB12KT TSRA FEW035CB BKN045

Example: see airport list